Time;durP1;ratioP1;P1;durP2;ratioP2;P2;SDS_P1;SDS_P2;PMS_P1;PMS_P2;Temp;Humidity;BMP_temperature;BMP_pressure;BME280_temperature;BME280_humidity;BME280_pressure;Samples;Min_cycle;Max_cycle;Signal;HPM_P1;HPM_P2
2021/03/22 00:01:09;;;;;;;21.17;3.42;;;;;;;7.46;64.63;100426.59;5037112;28;20459;-85
2021/03/22 00:03:35;;;;;;;19.40;2.75;;;;;;;7.50;64.63;100432.56;5050752;28;20136;-85
2021/03/22 00:06:03;;;;;;;14.88;2.30;;;;;;;7.51;64.85;100426.44;5052793;28;20073;-85
2021/03/22 00:08:30;;;;;;;21.20;3.22;;;;;;;7.50;64.72;100427.34;5053450;28;20056;-84
2021/03/22 00:10:57;;;;;;;19.40;3.15;;;;;;;7.50;64.47;100424.72;5053048;28;20049;-85
2021/03/22 00:13:25;;;;;;;24.88;3.95;;;;;;;7.48;64.84;100419.53;5054802;28;20046;-85
2021/03/22 00:15:54;;;;;;;14.50;3.17;;;;;;;7.48;64.48;100421.31;5053263;28;20063;-85
2021/03/22 00:18:23;;;;;;;16.52;2.85;;;;;;;7.46;64.75;100418.72;5054530;28;20052;-85
2021/03/22 00:20:50;;;;;;;27.15;4.22;;;;;;;7.47;64.54;100414.34;5054027;28;20137;-85
2021/03/22 00:23:17;;;;;;;26.38;3.20;;;;;;;7.43;64.92;100411.84;5051643;28;20057;-84
2021/03/22 00:25:44;;;;;;;26.88;3.78;;;;;;;7.42;64.66;100415.38;5053759;28;20049;-85
2021/03/22 00:28:12;;;;;;;13.82;3.03;;;;;;;7.39;64.65;100412.84;5054958;28;20061;-85
2021/03/22 00:30:41;;;;;;;21.05;3.70;;;;;;;7.37;64.73;100412.03;5053973;28;20413;-84
2021/03/22 00:33:08;;;;;;;22.70;3.55;;;;;;;7.36;64.97;100406.84;5052647;28;20057;-85
2021/03/22 00:35:35;;;;;;;31.60;3.97;;;;;;;7.35;64.98;100416.47;5052356;28;20081;-85
2021/03/22 00:38:02;;;;;;;24.67;3.45;;;;;;;7.34;65.04;100414.75;5053425;28;20057;-85
2021/03/22 00:40:31;;;;;;;20.73;3.85;;;;;;;7.33;64.99;100407.78;5052628;28;20449;-85
2021/03/22 00:42:57;;;;;;;22.05;3.65;;;;;;;7.32;65.03;100413.94;5053036;28;20053;-85
2021/03/22 00:45:25;;;;;;;19.80;3.55;;;;;;;7.31;65.10;100409.63;5051937;28;20056;-84
2021/03/22 00:47:52;;;;;;;28.67;3.97;;;;;;;7.30;65.22;100405.28;5053808;28;20120;-84
2021/03/22 00:50:29;;;;;;;22.00;3.20;;;;;;;7.26;65.13;100407.13;5054727;28;20073;-84
2021/03/22 00:52:55;;;;;;;20.63;3.20;;;;;;;7.27;64.93;100401.00;5053006;28;20062;-85
2021/03/22 00:55:22;;;;;;;27.23;2.97;;;;;;;7.28;65.22;100404.47;5053559;28;20136;-85
2021/03/22 00:57:49;;;;;;;16.95;3.05;;;;;;;7.26;65.11;100396.66;5052562;28;20049;-85
2021/03/22 01:00:38;;;;;;;22.92;3.63;;;;;;;7.26;65.24;100403.69;5053882;28;20068;-84
2021/03/22 01:03:06;;;;;;;18.30;2.97;;;;;;;7.27;65.30;100398.41;5050966;28;20540;-84
2021/03/22 01:05:33;;;;;;;16.85;3.38;;;;;;;7.27;65.04;100402.75;5052087;28;20045;-84
2021/03/22 01:07:59;;;;;;;29.13;3.83;;;;;;;7.26;65.51;100408.91;5052241;28;20089;-84
2021/03/22 01:10:40;;;;;;;23.30;3.63;;;;;;;7.23;65.22;100401.16;5051010;28;20058;-83
2021/03/22 01:13:13;;;;;;;19.70;3.65;;;;;;;7.25;65.11;100399.34;5051636;28;20061;-84
2021/03/22 01:15:39;;;;;;;17.25;3.53;;;;;;;7.26;65.12;100401.06;5050056;28;20064;-84
2021/03/22 01:18:06;;;;;;;20.30;3.50;;;;;;;7.26;65.29;100401.06;5052057;28;20053;-85
2021/03/22 01:20:41;;;;;;;21.75;3.88;;;;;;;7.24;65.13;100392.38;5052018;28;20065;-85
2021/03/22 01:23:08;;;;;;;21.52;4.25;;;;;;;7.25;65.17;100381.03;5052302;28;20112;-85
2021/03/22 01:25:34;;;;;;;17.33;3.28;;;;;;;7.24;65.41;100388.00;5052216;28;20046;-84
2021/03/22 01:28:00;;;;;;;20.65;3.00;;;;;;;7.24;65.47;100381.91;5052988;28;20056;-84
2021/03/22 01:30:53;;;;;;;16.90;3.03;;;;;;;7.21;65.35;100384.66;5035817;28;20055;-83
2021/03/22 01:33:23;;;;;;;15.50;3.10;;;;;;;7.22;65.31;100375.88;5035143;28;20085;-83
2021/03/22 01:35:50;;;;;;;22.15;3.45;;;;;;;7.23;65.69;100382.81;5035200;28;20112;-84
2021/03/22 01:38:16;;;;;;;20.45;3.47;;;;;;;7.22;65.31;100374.09;5034159;28;20172;-83
2021/03/22 01:40:57;;;;;;;19.42;3.72;;;;;;;7.19;65.05;100383.81;5033808;28;20053;-84
2021/03/22 01:43:56;;;;;;;18.23;3.83;;;;;;;7.17;65.24;100376.88;5035215;28;20061;-83
2021/03/22 01:46:38;;;;;;;17.17;3.63;;;;;;;7.20;65.13;100380.28;5034944;28;20041;-83
2021/03/22 01:49:05;;;;;;;20.00;3.60;;;;;;;7.17;65.22;100368.16;5034015;28;20049;-83
2021/03/22 01:51:34;;;;;;;19.50;3.72;;;;;;;7.16;65.54;100379.56;5034794;28;20501;-83
2021/03/22 01:54:00;;;;;;;15.63;3.40;;;;;;;7.14;65.20;100376.97;5033500;28;20425;-83
2021/03/22 01:56:29;;;;;;;22.55;3.70;;;;;;;7.14;65.53;100374.34;5035048;28;20048;-83
2021/03/22 01:58:56;;;;;;;20.75;3.75;;;;;;;7.14;65.55;100365.66;5034872;28;20054;-86
2021/03/22 02:01:24;;;;;;;23.88;3.58;;;;;;;7.13;65.71;100379.63;5034821;28;20498;-85
2021/03/22 02:03:51;;;;;;;22.25;4.18;;;;;;;7.13;65.61;100384.88;5033355;28;20050;-84
2021/03/22 02:06:18;;;;;;;16.70;3.55;;;;;;;7.13;65.96;100377.03;5033286;28;20501;-85
2021/03/22 02:08:45;;;;;;;18.90;4.10;;;;;;;7.13;65.77;100374.41;5032873;28;20049;-85
2021/03/22 02:11:21;;;;;;;14.32;3.58;;;;;;;7.10;65.69;100367.50;5034588;28;20053;-85
2021/03/22 02:13:50;;;;;;;16.48;3.17;;;;;;;7.15;65.91;100370.00;5034311;28;20095;-84
2021/03/22 02:16:32;;;;;;;11.75;3.17;;;;;;;7.09;65.71;100373.66;5036643;28;20430;-85
2021/03/22 02:19:20;;;;;;;14.00;3.42;;;;;;;7.09;65.68;100375.41;5051076;28;20079;-84
2021/03/22 02:22:11;;;;;;;18.27;3.20;;;;;;;7.08;65.71;100369.34;5052705;28;20049;-85
2021/03/22 02:24:56;;;;;;;12.85;3.13;;;;;;;7.07;65.72;100365.00;5052720;28;20056;-85
2021/03/22 02:27:50;;;;;;;16.40;3.83;;;;;;;7.08;65.89;100369.34;5052741;28;20045;-85
2021/03/22 02:30:22;;;;;;;17.08;3.70;;;;;;;7.10;66.23;100369.28;5051096;28;20053;-85
2021/03/22 02:33:19;;;;;;;18.87;4.73;;;;;;;7.08;66.22;100376.31;5052390;28;20075;-85
2021/03/22 02:36:10;;;;;;;16.17;3.45;;;;;;;7.07;66.18;100365.00;5049035;28;20059;-85
2021/03/22 02:38:44;;;;;;;18.05;3.90;;;;;;;7.10;66.25;100369.28;5051117;28;20053;-84
2021/03/22 02:41:21;;;;;;;15.20;3.45;;;;;;;7.08;66.06;100373.69;5052268;28;20056;-85
2021/03/22 02:44:08;;;;;;;14.95;4.35;;;;;;;7.07;66.14;100375.47;5051121;28;20060;-84
2021/03/22 02:46:37;;;;;;;15.07;3.60;;;;;;;7.10;66.41;100375.38;5050213;28;20049;-85
2021/03/22 02:49:09;;;;;;;23.00;4.10;;;;;;;7.09;66.18;100371.03;5050166;28;20045;-85
2021/03/22 02:51:47;;;;;;;18.73;4.38;;;;;;;7.12;66.44;100373.56;5048541;28;20486;-85
2021/03/22 02:54:40;;;;;;;22.13;4.65;;;;;;;7.08;66.54;100363.22;5048188;28;20049;-84
2021/03/22 02:57:15;;;;;;;23.77;4.53;;;;;;;7.09;66.46;100373.66;5048595;28;20049;-85
2021/03/22 02:59:54;;;;;;;22.45;4.65;;;;;;;7.09;66.53;100371.03;5049717;28;20299;-85
2021/03/22 03:02:21;;;;;;;18.27;4.30;;;;;;;7.13;66.72;100374.41;5048242;28;20053;-84
2021/03/22 03:04:47;;;;;;;21.92;5.47;;;;;;;7.14;66.60;100371.75;5048981;28;20076;-84
2021/03/22 03:07:25;;;;;;;18.55;4.28;;;;;;;7.12;66.55;100378.81;5049432;28;20048;-85
2021/03/22 03:09:52;;;;;;;23.30;5.13;;;;;;;7.16;66.79;100377.81;5049264;28;20057;-84
2021/03/22 03:12:20;;;;;;;18.77;4.43;;;;;;;7.18;66.70;100372.53;5047097;28;20053;-84
2021/03/22 03:14:52;;;;;;;19.42;4.80;;;;;;;7.19;66.57;100381.22;5048810;28;20049;-84
2021/03/22 03:17:20;;;;;;;16.05;4.82;;;;;;;7.22;66.88;100381.94;5046905;28;20053;-84
2021/03/22 03:19:54;;;;;;;18.60;4.82;;;;;;;7.23;66.81;100393.28;5046912;28;20064;-84
2021/03/22 03:22:21;;;;;;;15.65;4.15;;;;;;;7.26;66.73;100396.66;5046221;28;20053;-84
2021/03/22 03:24:48;;;;;;;24.90;5.03;;;;;;;7.28;66.88;100392.25;5048065;28;20056;-84
2021/03/22 03:27:15;;;;;;;22.25;5.50;;;;;;;7.29;66.94;100388.72;5049196;28;20049;-84
2021/03/22 03:29:42;;;;;;;18.58;4.40;;;;;;;7.32;66.82;100384.28;5049566;28;20049;-85
2021/03/22 03:32:12;;;;;;;21.92;5.95;;;;;;;7.32;66.79;100392.16;5049993;28;20054;-84
2021/03/22 03:34:39;;;;;;;17.17;5.32;;;;;;;7.34;66.82;100385.09;5080565;22;20493;-86
2021/03/22 03:37:06;;;;;;;19.67;4.70;;;;;;;7.33;67.00;100392.06;5016059;28;20052;-86
2021/03/22 03:39:33;;;;;;;22.25;5.38;;;;;;;7.34;66.62;100390.31;5033455;28;20046;-86
2021/03/22 03:42:00;;;;;;;18.70;4.80;;;;;;;7.33;66.67;100394.69;5033448;28;20418;-86
2021/03/22 03:44:26;;;;;;;14.18;4.90;;;;;;;7.34;66.57;100392.94;5015401;28;20520;-85
2021/03/22 03:46:52;;;;;;;21.25;5.75;;;;;;;7.34;67.07;100387.69;5015562;28;20490;-86
2021/03/22 03:49:19;;;;;;;22.77;6.03;;;;;;;7.34;66.82;100388.56;5033338;28;20049;-86
2021/03/22 03:51:45;;;;;;;19.23;5.65;;;;;;;7.34;67.14;100390.31;5033059;28;20053;-88
2021/03/22 03:54:11;;;;;;;17.52;5.43;;;;;;;7.35;67.08;100392.91;5015596;28;20053;-88
2021/03/22 03:56:38;;;;;;;15.38;4.43;;;;;;;7.37;67.24;100388.44;5033492;28;20049;-88
2021/03/22 03:59:06;;;;;;;18.15;4.75;;;;;;;7.37;67.28;100388.44;5033217;28;20053;-88
2021/03/22 04:01:33;;;;;;;16.38;5.05;;;;;;;7.38;67.07;100392.81;5015777;28;20064;-88
2021/03/22 04:04:00;;;;;;;20.92;5.32;;;;;;;7.40;67.03;100388.34;5015485;28;20468;-89
2021/03/22 04:06:29;;;;;;;14.80;5.32;;;;;;;7.40;67.25;100392.75;5033119;28;20405;-88
2021/03/22 04:08:57;;;;;;;19.63;4.97;;;;;;;7.41;67.20;100387.44;5033075;28;20060;-88
2021/03/22 04:11:27;;;;;;;19.80;5.10;;;;;;;7.42;66.90;100397.03;5015506;28;20508;-88
2021/03/22 04:13:54;;;;;;;20.90;5.00;;;;;;;7.43;67.15;100388.25;5032899;28;20053;-86
2021/03/22 04:16:22;;;;;;;17.17;5.00;;;;;;;7.42;66.95;100391.78;5033041;28;20052;-85
2021/03/22 04:18:48;;;;;;;19.30;4.60;;;;;;;7.43;67.12;100392.63;5015412;28;20049;-85
2021/03/22 04:21:18;;;;;;;12.40;3.95;;;;;;;7.41;67.42;100395.28;5015602;28;20046;-87
2021/03/22 04:23:46;;;;;;;16.42;4.50;;;;;;;7.41;67.53;100395.28;5015284;28;20053;-89
2021/03/22 04:26:14;;;;;;;13.65;4.20;;;;;;;7.42;67.42;100397.03;5015461;28;20046;-88
2021/03/22 04:28:41;;;;;;;10.77;4.35;;;;;;;7.45;67.55;100403.06;5015928;28;20111;-88
2021/03/22 04:31:08;;;;;;;13.27;4.22;;;;;;;7.47;67.54;100403.88;5032943;28;20061;-88
2021/03/22 04:33:34;;;;;;;14.82;4.32;;;;;;;7.48;67.67;100398.56;5017703;28;20133;-89
2021/03/22 04:36:01;;;;;;;13.57;4.50;;;;;;;7.51;67.63;100403.72;5018984;28;20053;-88
2021/03/22 04:38:27;;;;;;;16.38;4.68;;;;;;;7.54;67.51;100402.75;5018863;28;20494;-88
2021/03/22 04:40:54;;;;;;;14.88;4.35;;;;;;;7.56;67.47;100407.03;5018908;28;20072;-88
2021/03/22 04:43:21;;;;;;;15.27;4.47;;;;;;;7.59;67.56;100400.81;5036277;28;20049;-88
2021/03/22 04:45:47;;;;;;;12.40;5.30;;;;;;;7.62;67.72;100402.50;5018524;28;20057;-85
2021/03/22 04:48:14;;;;;;;23.98;5.95;;;;;;;7.62;67.54;100402.50;5018694;28;20486;-86
2021/03/22 04:50:40;;;;;;;14.07;5.50;;;;;;;7.62;67.36;100407.75;5018768;28;20049;-86
2021/03/22 04:53:06;;;;;;;15.82;5.50;;;;;;;7.63;67.51;100409.44;5036180;28;20498;-85
2021/03/22 04:55:33;;;;;;;15.18;5.95;;;;;;;7.63;67.62;100409.44;5018690;28;20501;-85
2021/03/22 04:57:59;;;;;;;16.77;5.85;;;;;;;7.63;67.65;100410.28;5036273;28;20049;-88
2021/03/22 05:00:30;;;;;;;16.50;5.82;;;;;;;7.63;67.37;100412.06;5018608;28;20532;-88
2021/03/22 05:02:56;;;;;;;17.60;6.03;;;;;;;7.64;67.69;100412.03;5018805;28;20056;-88
2021/03/22 05:05:25;;;;;;;17.77;5.68;;;;;;;7.63;67.41;100401.59;5018265;28;20052;-88
2021/03/22 05:07:52;;;;;;;17.30;5.68;;;;;;;7.62;67.71;100407.75;5018437;28;20049;-88
2021/03/22 05:10:25;;;;;;;14.48;5.35;;;;;;;7.62;67.72;100413.00;5018233;28;20049;-88
2021/03/22 05:12:52;;;;;;;18.73;5.38;;;;;;;7.63;67.72;100414.69;5035896;28;20514;-88
2021/03/22 05:15:19;;;;;;;15.18;5.22;;;;;;;7.62;67.61;100416.44;5035610;28;20053;-88
2021/03/22 05:17:45;;;;;;;16.58;5.05;;;;;;;7.61;67.73;100409.50;5018264;28;20053;-88
2021/03/22 05:20:26;;;;;;;16.05;4.32;;;;;;;7.57;67.85;100421.00;5018185;28;20054;-88
2021/03/22 05:22:53;;;;;;;16.58;4.40;;;;;;;7.59;67.71;100421.78;5018216;28;20056;-88
2021/03/22 05:25:20;;;;;;;18.55;5.13;;;;;;;7.58;67.81;100422.69;5035135;28;20050;-88
2021/03/22 05:27:47;;;;;;;16.38;5.07;;;;;;;7.57;67.74;100418.38;5035442;28;20494;-88
2021/03/22 05:30:14;;;;;;;16.98;4.55;;;;;;;7.54;68.14;100421.94;5018108;28;20508;-88
2021/03/22 05:32:41;;;;;;;13.50;4.75;;;;;;;7.54;67.93;100418.47;5018066;28;20060;-88
2021/03/22 05:35:18;;;;;;;12.55;4.30;;;;;;;7.52;68.02;100433.41;5017740;28;20045;-89
2021/03/22 05:37:44;;;;;;;12.85;5.03;;;;;;;7.54;67.90;100436.81;5018013;28;20489;-89
2021/03/22 05:40:19;;;;;;;13.05;4.70;;;;;;;7.52;68.32;100426.38;5017769;28;20053;-89
2021/03/22 05:43:01;;;;;;;12.35;4.00;;;;;;;7.50;68.38;100427.34;5017815;28;20045;-88
2021/03/22 05:46:00;;;;;;;10.52;3.80;;;;;;;7.51;68.43;100429.06;5035013;28;20050;-89
2021/03/22 05:49:09;;;;;;;13.02;3.95;;;;;;;7.50;68.43;100435.19;5017865;28;20096;-88
2021/03/22 05:52:00;;;;;;;13.63;3.60;;;;;;;7.51;68.37;100435.16;4998123;28;20056;-89
2021/03/22 05:54:41;;;;;;;7.57;3.78;;;;;;;7.53;68.10;100430.72;5017640;28;20045;-88
2021/03/22 05:57:07;;;;;;;8.48;3.28;;;;;;;7.56;68.44;100429.75;5017605;28;20072;-88
2021/03/22 05:59:48;;;;;;;7.95;3.72;;;;;;;7.55;68.58;100438.50;5017332;28;20060;-89
2021/03/22 06:02:37;;;;;;;10.80;3.30;;;;;;;7.58;68.19;100432.34;5017588;28;20064;-90
2021/03/22 06:05:27;;;;;;;9.52;3.35;;;;;;;7.61;68.57;100443.56;5017457;28;20071;-89
2021/03/22 06:07:59;;;;;;;13.40;3.80;;;;;;;7.65;68.43;100433.81;5017349;28;20056;-86
2021/03/22 06:10:38;;;;;;;11.65;3.67;;;;;;;7.66;68.33;100444.25;5017263;28;20475;-86
2021/03/22 06:13:06;;;;;;;12.43;3.45;;;;;;;7.71;68.46;100446.72;5018102;28;20076;-86
2021/03/22 06:15:43;;;;;;;10.43;3.60;;;;;;;7.73;68.23;100451.94;5017585;28;20409;-86
2021/03/22 06:18:31;;;;;;;10.48;3.67;;;;;;;7.73;68.36;100455.38;5016918;28;20136;-86
2021/03/22 06:21:02;;;;;;;10.50;3.05;;;;;;;7.77;68.37;100450.88;5017861;28;20107;-86
2021/03/22 06:23:41;;;;;;;8.85;2.70;;;;;;;7.78;68.30;100453.47;5017014;28;20060;-86
2021/03/22 06:26:19;;;;;;;5.65;2.72;;;;;;;7.81;68.27;100460.34;5017412;28;20060;-86
2021/03/22 06:28:48;;;;;;;6.88;2.88;;;;;;;7.84;68.46;100465.50;5017175;28;20132;-86
2021/03/22 06:31:19;;;;;;;6.93;2.50;;;;;;;7.84;67.98;100462.88;5017042;28;20413;-86
2021/03/22 06:33:48;;;;;;;6.88;2.30;;;;;;;7.86;68.29;100468.94;5034251;28;20054;-86
2021/03/22 06:36:18;;;;;;;4.30;2.08;;;;;;;7.86;68.31;100461.09;5016949;28;20387;-86
2021/03/22 06:38:50;;;;;;;7.47;2.30;;;;;;;7.84;68.32;100456.81;5016665;28;20409;-86
2021/03/22 06:41:48;;;;;;;7.13;2.40;;;;;;;7.82;68.05;100468.16;5016906;28;20410;-86
2021/03/22 06:44:24;;;;;;;7.10;2.70;;;;;;;7.84;68.14;100462.88;5017251;28;20391;-86
2021/03/22 06:47:00;;;;;;;7.07;2.42;;;;;;;7.83;68.07;100463.78;5016348;28;20049;-86
2021/03/22 06:49:42;;;;;;;6.18;2.47;;;;;;;7.84;68.33;100470.75;5016760;28;20053;-86
2021/03/22 06:52:11;;;;;;;7.60;2.38;;;;;;;7.84;68.23;100465.50;5016721;28;20438;-86
2021/03/22 06:54:51;;;;;;;6.90;2.40;;;;;;;7.82;68.20;100467.34;5016363;28;20053;-86
2021/03/22 06:57:23;;;;;;;8.05;2.13;;;;;;;7.81;68.24;100463.84;5017233;28;20049;-86
2021/03/22 07:00:13;;;;;;;5.30;2.28;;;;;;;7.78;68.08;100461.31;5016568;28;20513;-86
2021/03/22 07:03:03;;;;;;;4.60;2.40;;;;;;;7.80;68.57;100469.13;5017230;28;20053;-86
2021/03/22 07:05:38;;;;;;;7.47;2.97;;;;;;;7.84;68.61;100477.78;5016446;28;20076;-86
2021/03/22 07:08:09;;;;;;;6.60;2.53;;;;;;;7.86;68.63;100476.81;5016846;28;20410;-86
2021/03/22 07:10:44;;;;;;;6.70;2.30;;;;;;;7.84;68.81;100468.13;5016589;28;20053;-86
2021/03/22 07:13:25;;;;;;;8.63;2.45;;;;;;;7.88;68.92;100472.34;5016111;28;20049;-87
2021/03/22 07:15:56;;;;;;;7.22;2.67;;;;;;;7.94;69.00;100474.78;5016632;28;20483;-86
2021/03/22 07:18:28;;;;;;;8.10;2.55;;;;;;;7.98;69.25;100478.16;5016573;28;20128;-86
2021/03/22 07:20:54;;;;;;;7.68;2.58;;;;;;;8.05;69.19;100479.66;5016112;28;20046;-86
2021/03/22 07:23:26;;;;;;;10.90;2.88;;;;;;;8.11;69.34;100475.94;5016161;28;20413;-86
2021/03/22 07:25:56;;;;;;;7.43;2.70;;;;;;;8.20;69.44;100480.00;5016015;28;20054;-86
2021/03/22 07:28:31;;;;;;;4.72;2.65;;;;;;;8.28;69.50;100480.59;5015971;28;20084;-86
2021/03/22 07:31:09;;;;;;;5.47;1.90;;;;;;;8.34;68.98;100485.63;5016306;28;20057;-86
2021/03/22 07:34:12;;;;;;;5.55;2.00;;;;;;;8.40;68.37;100496.78;5015916;28;20049;-86
2021/03/22 07:36:58;;;;;;;5.05;1.90;;;;;;;8.49;68.41;100493.88;5016282;28;20562;-86
2021/03/22 07:39:38;;;;;;;2.95;1.55;;;;;;;8.51;68.39;100493.78;4986186;28;20483;-86
2021/03/22 07:42:12;;;;;;;5.07;1.80;;;;;;;8.54;68.43;100497.19;5016484;28;20053;-86
2021/03/22 07:44:45;;;;;;;5.03;1.40;;;;;;;8.54;68.24;100497.19;5016054;28;20053;-86
2021/03/22 07:47:34;;;;;;;2.60;1.60;;;;;;;8.51;67.88;100501.66;5016691;28;20490;-86
2021/03/22 07:50:12;;;;;;;2.97;1.58;;;;;;;8.52;68.03;100504.22;5034044;28;20473;-86
2021/03/22 07:53:08;;;;;;;4.22;1.85;;;;;;;8.51;67.93;100509.53;5015870;28;20049;-86
2021/03/22 07:55:38;;;;;;;6.63;1.85;;;;;;;8.55;68.24;100516.41;4991461;28;20140;-86
2021/03/22 07:58:28;;;;;;;4.03;1.83;;;;;;;8.54;68.01;100509.44;5016042;28;20132;-86
2021/03/22 08:01:22;;;;;;;6.80;1.75;;;;;;;8.55;67.76;100512.03;5016608;28;20053;-86
2021/03/22 08:04:26;;;;;;;4.57;1.60;;;;;;;8.54;68.18;100525.19;5016603;28;20053;-86
2021/03/22 08:07:37;;;;;;;6.82;2.38;;;;;;;8.54;67.96;100525.19;5015792;28;20052;-86
2021/03/22 08:10:29;;;;;;;6.20;1.90;;;;;;;8.53;67.52;100520.88;5009239;28;20061;-86
2021/03/22 08:13:11;;;;;;;6.07;1.50;;;;;;;8.51;67.74;100520.88;5019272;28;20049;-86
2021/03/22 08:16:06;;;;;;;4.47;1.67;;;;;;;8.47;67.36;100533.28;5019645;28;20057;-86
2021/03/22 08:18:45;;;;;;;2.78;1.60;;;;;;;8.46;67.57;100531.53;5037657;28;20470;-86
2021/03/22 08:21:29;;;;;;;2.72;1.33;;;;;;;8.42;67.61;100539.59;5020973;28;20065;-86
2021/03/22 08:24:17;;;;;;;3.03;1.60;;;;;;;8.40;67.81;100539.63;5036943;28;20129;-86
2021/03/22 08:26:52;;;;;;;3.60;1.45;;;;;;;8.38;67.85;100540.59;5019361;28;20049;-86
2021/03/22 08:29:34;;;;;;;5.72;1.85;;;;;;;8.38;67.92;100543.22;5019108;28;20045;-86
2021/03/22 08:32:04;;;;;;;6.95;1.80;;;;;;;8.42;68.68;100544.84;5036777;28;20049;-86
2021/03/22 08:34:46;;;;;;;5.10;2.00;;;;;;;8.40;68.34;100542.25;5018942;28;20053;-86
2021/03/22 08:37:22;;;;;;;3.90;1.98;;;;;;;8.46;68.39;100546.44;5019287;28;20117;-86
2021/03/22 08:39:54;;;;;;;4.43;1.67;;;;;;;8.50;68.51;100542.78;5018950;28;20056;-86
2021/03/22 08:42:50;;;;;;;3.80;1.75;;;;;;;8.51;68.61;100548.88;5019019;28;20050;-86
2021/03/22 08:45:22;;;;;;;4.03;2.05;;;;;;;8.59;68.97;100541.63;5018816;28;20064;-86
2021/03/22 08:48:17;;;;;;;7.18;1.58;;;;;;;8.59;68.31;100547.75;5018504;28;20052;-86
2021/03/22 08:50:46;;;;;;;3.08;1.83;;;;;;;8.67;68.64;100550.09;5018902;28;20058;-87
2021/03/22 08:53:17;;;;;;;5.55;1.50;;;;;;;8.70;68.63;100552.59;5019307;28;20060;-86
2021/03/22 08:56:05;;;;;;;5.97;1.67;;;;;;;8.71;68.12;100559.56;5018681;28;20053;-86
2021/03/22 08:58:46;;;;;;;4.30;1.48;;;;;;;8.77;68.07;100557.63;5018561;28;20141;-86
2021/03/22 09:01:27;;;;;;;2.58;1.20;;;;;;;8.79;67.92;100569.78;5036171;28;20053;-86
2021/03/22 09:03:58;;;;;;;3.60;1.33;;;;;;;8.85;68.68;100560.81;5035984;28;20064;-86
2021/03/22 09:06:28;;;;;;;3.90;1.10;;;;;;;8.85;68.21;100564.31;5018971;28;20045;-87
2021/03/22 09:09:16;;;;;;;4.38;1.73;;;;;;;8.87;68.13;100561.63;5018191;28;20049;-87
2021/03/22 09:11:45;;;;;;;3.03;1.45;;;;;;;8.94;68.69;100564.88;5018162;28;20060;-87
2021/03/22 09:14:28;;;;;;;2.03;1.30;;;;;;;9.00;69.02;100569.91;5018450;28;20049;-87
2021/03/22 09:16:57;;;;;;;5.65;1.58;;;;;;;9.07;69.11;100570.53;5018379;28;20045;-87
2021/03/22 09:19:39;;;;;;;2.35;1.30;;;;;;;9.13;68.75;100578.19;5018236;28;20053;-87
2021/03/22 09:22:19;;;;;;;3.13;1.20;;;;;;;9.30;69.17;100574.06;5020007;28;20140;-87
2021/03/22 09:24:47;;;;;;;5.00;1.55;;;;;;;9.36;68.96;100564.19;5017986;28;20457;-87
2021/03/22 09:27:16;;;;;;;6.55;1.50;;;;;;;9.46;68.57;100567.28;5017708;28;20053;-87
2021/03/22 09:29:49;;;;;;;4.47;1.45;;;;;;;9.53;68.14;100570.53;5017982;28;20053;-87
2021/03/22 09:32:28;;;;;;;3.10;1.05;;;;;;;9.56;67.53;100567.78;5018045;28;20049;-87
2021/03/22 09:35:01;;;;;;;5.22;1.38;;;;;;;9.59;67.41;100572.06;5062386;23;20559;-91
2021/03/22 09:37:37;;;;;;;4.72;1.42;;;;;;;9.62;67.27;100570.19;5035721;28;20489;-92
2021/03/22 09:40:11;;;;;;;4.78;1.30;;;;;;;9.69;67.60;100565.53;5050978;28;20053;-92
2021/03/22 09:42:38;;;;;;;5.07;1.23;;;;;;;9.80;68.32;100570.34;5035438;28;20490;-92
2021/03/22 09:45:17;;;;;;;4.15;1.02;;;;;;;9.87;67.65;100568.31;5035036;28;20053;-92
2021/03/22 09:47:43;;;;;;;1.27;0.90;;;;;;;10.00;68.43;100569.53;5034351;28;20052;-91
2021/03/22 09:50:24;;;;;;;2.50;1.33;;;;;;;10.07;66.94;100571.88;5034116;28;20500;-91
2021/03/22 09:52:53;;;;;;;2.05;1.00;;;;;;;10.18;67.24;100569.69;5035484;28;20053;-91
2021/03/22 09:55:22;;;;;;;3.40;1.20;;;;;;;10.25;66.94;100563.22;5033783;28;20049;-92
2021/03/22 09:57:48;;;;;;;2.95;1.10;;;;;;;10.33;67.20;100569.94;5035159;28;20060;-91
2021/03/22 10:00:46;;;;;;;2.53;0.85;;;;;;;10.35;66.04;100557.59;5035017;28;20055;-91
2021/03/22 10:03:28;;;;;;;3.08;0.98;;;;;;;10.39;65.74;100572.31;5034090;28;20103;-91
2021/03/22 10:05:57;;;;;;;2.78;1.10;;;;;;;10.44;66.27;100562.47;5033381;28;20081;-91
2021/03/22 10:08:39;;;;;;;3.75;1.40;;;;;;;10.42;65.10;100572.16;5034958;28;20050;-92
2021/03/22 10:11:32;;;;;;;3.38;1.08;;;;;;;10.40;64.99;100582.75;5034948;28;20076;-92
2021/03/22 10:14:01;;;;;;;4.53;1.20;;;;;;;10.42;65.65;100582.69;5035184;28;20056;-92
2021/03/22 10:16:35;;;;;;;2.92;1.50;;;;;;;10.35;64.79;100587.38;5033575;28;20053;-92
2021/03/22 10:19:22;;;;;;;4.93;1.10;;;;;;;10.29;64.28;100585.84;5033610;28;20118;-92
2021/03/22 10:21:51;;;;;;;3.85;1.30;;;;;;;10.33;65.48;100585.72;5033739;28;20402;-92
2021/03/22 10:24:47;;;;;;;5.32;1.30;;;;;;;10.30;65.27;100581.44;5033429;28;20089;-92
2021/03/22 10:27:23;;;;;;;5.35;1.63;;;;;;;10.33;65.31;100586.59;5033581;28;20053;-91
2021/03/22 10:29:49;;;;;;;4.65;1.95;;;;;;;10.41;66.25;100588.88;5033977;28;20056;-91
2021/03/22 10:32:23;;;;;;;5.00;1.73;;;;;;;10.41;64.89;100589.75;5033427;28;20049;-92
2021/03/22 10:35:06;;;;;;;6.35;1.55;;;;;;;10.42;64.63;100585.31;5033996;28;20326;-90
2021/03/22 10:37:46;;;;;;;5.57;1.60;;;;;;;10.46;64.38;100589.56;5033651;28;20052;-91
2021/03/22 10:40:21;;;;;;;6.40;2.08;;;;;;;10.45;63.79;100587.00;5033385;28;20061;-91
2021/03/22 10:42:49;;;;;;;5.00;1.27;;;;;;;10.48;65.19;100586.88;5033159;28;20071;-91
2021/03/22 10:45:41;;;;;;;3.55;1.13;;;;;;;10.45;64.64;100590.50;5033045;28;20088;-92
2021/03/22 10:48:21;;;;;;;5.00;1.30;;;;;;;10.48;64.55;100586.88;5033006;28;20049;-91
2021/03/22 10:51:01;;;;;;;3.43;1.30;;;;;;;10.53;64.43;100577.84;5034561;28;20057;-92
2021/03/22 10:53:28;;;;;;;2.33;1.55;;;;;;;10.64;66.04;100568.63;5032823;28;20505;-91
2021/03/22 10:55:54;;;;;;;4.10;1.42;;;;;;;10.74;66.64;100563.81;5032743;28;20057;-92
2021/03/22 10:58:28;;;;;;;6.35;1.90;;;;;;;10.88;65.90;100576.38;5034115;28;20053;-92
2021/03/22 11:01:06;;;;;;;4.97;1.33;;;;;;;11.03;64.44;100570.38;5034098;28;20505;-91
2021/03/22 11:03:34;;;;;;;5.72;1.77;;;;;;;11.24;65.43;100578.22;5033996;28;20046;-92
2021/03/22 11:06:10;;;;;;;4.22;1.70;;;;;;;11.39;64.56;100579.28;5032656;28;20055;-91
2021/03/22 11:08:39;;;;;;;5.15;1.73;;;;;;;11.62;65.60;100581.78;5033887;28;20071;-91
2021/03/22 11:11:15;;;;;;;2.92;1.70;;;;;;;11.79;63.69;100589.72;5032751;28;20512;-91
2021/03/22 11:13:45;;;;;;;6.05;1.70;;;;;;;11.99;63.45;100583.47;5033836;28;20053;-90
2021/03/22 11:16:23;;;;;;;3.45;1.73;;;;;;;12.10;62.07;100593.50;5032837;28;20468;-92
2021/03/22 11:18:51;;;;;;;5.75;1.88;;;;;;;12.23;63.48;100592.91;5032798;28;20053;-91
2021/03/22 11:21:23;;;;;;;2.90;1.63;;;;;;;12.24;61.74;100589.31;5032787;28;20049;-91
2021/03/22 11:23:54;;;;;;;4.20;2.08;;;;;;;12.29;61.85;100597.84;5033421;28;20064;-91
2021/03/22 11:26:26;;;;;;;4.30;1.83;;;;;;;12.30;61.47;100580.25;5032789;28;20064;-91
2021/03/22 11:29:15;;;;;;;6.97;1.67;;;;;;;12.21;59.88;100606.16;5034163;28;20056;-91
2021/03/22 11:31:44;;;;;;;3.72;1.38;;;;;;;12.20;61.12;100600.97;5033070;28;20053;-92
2021/03/22 11:34:32;;;;;;;5.60;1.95;;;;;;;12.08;59.72;100598.00;5032044;28;20089;-91
2021/03/22 11:37:08;;;;;;;7.40;1.98;;;;;;;12.05;60.27;100595.53;5034171;28;20482;-92
2021/03/22 11:39:35;;;;;;;5.85;1.77;;;;;;;12.05;62.20;100597.28;5032435;28;20045;-92
2021/03/22 11:42:07;;;;;;;5.82;2.20;;;;;;;12.04;61.14;100601.69;5034771;28;20045;-91
2021/03/22 11:44:36;;;;;;;5.40;2.03;;;;;;;12.05;61.40;100600.81;5036537;28;20050;-91
2021/03/22 11:47:34;;;;;;;7.10;1.77;;;;;;;12.02;60.39;100605.31;5036566;28;20054;-91
2021/03/22 11:50:22;;;;;;;6.05;2.00;;;;;;;12.07;61.69;100617.41;5037793;28;20049;-92
2021/03/22 11:53:08;;;;;;;5.15;1.90;;;;;;;12.05;61.00;100616.63;5037447;28;20057;-92
2021/03/22 11:55:36;;;;;;;4.78;1.77;;;;;;;12.10;61.91;100606.69;5036156;28;20049;-91
2021/03/22 11:58:04;;;;;;;3.97;1.88;;;;;;;12.12;62.10;100604.81;5036217;28;20045;-91
2021/03/22 12:00:36;;;;;;;6.10;2.10;;;;;;;12.11;60.67;100608.41;5037635;28;20449;-92